New Glarus, WI (53574)

14:29 CST le 26 janvier 2015 (GMT -0600)
Swisstown | Change Station
CLOSE
Current Station
Stations météorologiques personnelles
Location: New Glarus, WI
Altitude: 875 ft
Stations météo à proximité
Avis météorologiques actifs: Special Statement

Alt. 875 ft 42.82 °N, 89.64 °W | Updated 5 seconds ago

Couvert
Couvert
23.7 ° F
Paraît 24 ° F
N
0.3
Vent Variable Vent de SE
Gusts 6.9 mph

Aujourd'hui
Haut(e) -- | Bas -- ° F
--% Risque de précip.
Hier
Haut(e) -- | Bas -- ° F
Precip. -- pouce
7:19 AM 5:03 PM
Lune montante, 46% visible
Pression 29.77 pouce
Visibilité 3.0 Miles terrestres
Nuages Couvert 500 ft
Refroidissement éolien 24 ° F
Point de rosée 21 ° F
Humidité 90%
Précipitations 0.00 pouce
Profondeur de la couche neigeuse Non disponible.
UV 1 sur 12
Pollen .10 sur 12
Qualité de l'air Non disponible.
Flu Activity Non disponible.
METAR KEFT 262015Z AUTO 16008KT 3SM BR OVC005 M05/M06 A2977 RMK AO2

More Conditions Fewer Conditions

Pression 29.77 pouce
Visibilité 3.0 Miles terrestres
Nuages Couvert 500 ft
Refroidissement éolien 24 ° F
Point de rosée 21 ° F
Humidité 90%
Précipitations 0.00 pouce
Profondeur de la couche neigeuse Non disponible.
UV 1 sur 12
Pollen .10 sur 12
Qualité de l'air Non disponible.
Flu Activity Non disponible.
METAR KEFT 262015Z AUTO 16008KT 3SM BR OVC005 M05/M06 A2977 RMK AO2

More Conditions Fewer Conditions

10-Day Weather Forecast

Almanac

Astronomie

Jan. 26, 2015 Lever Coucher
Temps réel
Crépuscule civil
Crépuscule nautique
Crépuscule astronomique
Lune
Durée de lumière visible
Longueur du jour
Tomorrow will be .
, % of the Moon is Illuminated

Extrêmes aujourd'hui

State Highs State Lows

Community

WunderPhotos

Upload Photos

1,790,350 Photos téléchargées !

WunderBlogs® & News

Nearby

Qualité de l'air

  Qualité de l'air Indice de la qualité de l'air Polluant
Not available.

Épaisseur de neige

Station Depth Altitude

Activité sismique

Ville Distance Mag. Time & Date
Minimum magnitude displayed is 2.5.

Températures des eaux côtières

Lieu Température

Stations météo à proximité